Time;durP1;ratioP1;P1;durP2;ratioP2;P2;SDS_P1;SDS_P2;PMS_P1;PMS_P2;Temp;Humidity;BMP_temperature;BMP_pressure;BME280_temperature;BME280_humidity;BME280_pressure;Samples;Min_cycle;Max_cycle;Signal;HPM_P1;HPM_P2
2022/09/07 00:00:20;;;;;;;12.60;6.83;;;;;;;12.45;50.17;100775.09;1705183;84;21782;-76
2022/09/07 00:03:26;;;;;;;15.03;6.83;;;;;;;12.44;50.16;100781.61;1705418;84;21174;-76
2022/09/07 00:06:37;;;;;;;21.97;6.22;;;;;;;12.45;50.18;100777.83;1705222;84;21806;-76
2022/09/07 00:09:41;;;;;;;10.43;5.57;;;;;;;12.56;50.02;100764.75;1705390;84;21766;-77
2022/09/07 00:12:46;;;;;;;13.48;4.95;;;;;;;12.68;49.61;100775.69;1705240;84;21165;-76
2022/09/07 00:15:52;;;;;;;9.38;5.40;;;;;;;12.60;49.69;100777.94;1706918;84;21213;-76
2022/09/07 00:19:01;;;;;;;8.03;4.50;;;;;;;12.59;49.74;100776.75;1710233;84;21224;-76
2022/09/07 00:22:08;;;;;;;9.78;4.70;;;;;;;12.32;50.12;100769.81;1708962;84;21208;-76
2022/09/07 00:25:15;;;;;;;10.65;4.67;;;;;;;12.11;50.87;100773.15;1709100;84;21220;-76
2022/09/07 00:28:20;;;;;;;8.95;4.95;;;;;;;11.99;51.27;100773.50;1710539;84;21185;-76
2022/09/07 00:31:28;;;;;;;7.80;4.47;;;;;;;11.99;51.30;100774.87;1710559;84;21567;-76
2022/09/07 00:34:34;;;;;;;8.93;5.05;;;;;;;11.96;51.35;100771.12;1709874;84;21215;-76
2022/09/07 00:37:40;;;;;;;7.97;4.55;;;;;;;11.92;51.46;100766.16;1709135;84;21154;-77
2022/09/07 00:40:46;;;;;;;9.25;4.62;;;;;;;11.88;51.54;100771.12;1709400;84;21173;-76
2022/09/07 00:43:58;;;;;;;9.13;4.28;;;;;;;11.92;51.40;100770.27;1710535;84;21237;-76
2022/09/07 00:47:04;;;;;;;5.83;3.62;;;;;;;11.87;51.41;100774.91;1710599;84;21189;-76
2022/09/07 00:50:26;;;;;;;7.80;4.30;;;;;;;11.82;51.56;100770.46;1709630;84;21248;-76
2022/09/07 00:53:40;;;;;;;7.50;4.42;;;;;;;11.85;51.41;100770.09;1710412;84;21173;-75
2022/09/07 00:56:48;;;;;;;7.30;4.12;;;;;;;11.78;51.56;100771.80;1710469;84;21233;-76
2022/09/07 00:59:56;;;;;;;6.60;4.22;;;;;;;11.85;51.52;100775.58;1710588;84;21757;-77
2022/09/07 01:03:02;;;;;;;10.00;4.10;;;;;;;11.72;51.85;100772.50;1710643;84;21224;-77
2022/09/07 01:06:24;;;;;;;7.17;3.92;;;;;;;11.75;51.86;100772.98;1710497;84;21206;-76
2022/09/07 01:09:29;;;;;;;10.88;3.60;;;;;;;11.73;51.79;100776.95;1710489;84;21209;-77
2022/09/07 01:12:29;;;;;;;10.45;3.60;;;;;;;11.69;51.96;100779.17;1710510;84;21185;-77
2022/09/07 01:15:59;;;;;;;5.42;3.52;;;;;;;11.55;52.47;100774.38;1710536;83;21754;-77
2022/09/07 01:19:39;;;;;;;8.55;3.20;;;;;;;11.56;52.58;100773.34;1700564;84;21793;-76
2022/09/07 01:23:24;;;;;;;8.55;3.95;;;;;;;11.55;52.64;100772.16;1708193;84;21245;-77
2022/09/07 01:27:16;;;;;;;11.43;4.62;;;;;;;11.55;52.75;100773.52;1672311;86;21744;-77
2022/09/07 01:30:28;;;;;;;7.92;3.92;;;;;;;11.56;52.96;100773.34;1707096;84;21224;-76
2022/09/07 01:33:48;;;;;;;7.42;3.37;;;;;;;11.59;52.93;100770.27;1672324;86;21219;-76
2022/09/07 01:37:09;;;;;;;8.10;3.72;;;;;;;11.63;52.97;100772.16;1694102;83;21188;-76
2022/09/07 01:40:41;;;;;;;7.37;3.58;;;;;;;11.63;53.03;100770.79;1670876;86;21264;-76
2022/09/07 01:44:00;;;;;;;10.05;4.12;;;;;;;11.60;53.19;100772.50;1708291;84;21221;-76
2022/09/07 01:47:17;;;;;;;6.00;3.60;;;;;;;11.62;53.18;100772.68;1700491;84;21161;-76
2022/09/07 01:50:51;;;;;;;6.85;4.08;;;;;;;11.63;53.18;100769.42;1708285;84;21216;-76
2022/09/07 01:54:02;;;;;;;6.35;3.90;;;;;;;11.56;53.32;100771.97;1672336;86;21231;-76
2022/09/07 01:57:15;;;;;;;10.13;4.72;;;;;;;11.60;53.42;100765.64;1708316;84;21779;-76
2022/09/07 02:00:22;;;;;;;6.47;3.87;;;;;;;11.68;53.17;100765.65;1700478;84;21244;-76
2022/09/07 02:03:42;;;;;;;7.83;4.55;;;;;;;11.64;53.24;100771.12;1708310;84;21181;-76
2022/09/07 02:07:04;;;;;;;6.85;4.03;;;;;;;11.71;53.04;100774.88;1705930;84;21199;-76
2022/09/07 02:10:33;;;;;;;8.08;3.90;;;;;;;11.66;52.94;100771.28;1714072;83;21240;-76
2022/09/07 02:13:45;;;;;;;7.87;3.95;;;;;;;11.55;53.09;100763.94;1714056;83;21212;-77
2022/09/07 02:17:12;;;;;;;6.62;3.75;;;;;;;11.46;53.31;100763.92;1711682;83;21864;-76
2022/09/07 02:20:25;;;;;;;9.28;3.62;;;;;;;11.47;53.36;100757.94;1702291;84;21245;-75
2022/09/07 02:23:38;;;;;;;7.42;3.95;;;;;;;11.47;53.37;100764.27;1705186;84;21759;-75
2022/09/07 02:26:45;;;;;;;8.83;3.52;;;;;;;11.47;53.52;100767.00;1705248;84;21170;-75
2022/09/07 02:29:52;;;;;;;6.85;3.83;;;;;;;11.47;53.45;100767.52;1705344;84;21209;-76
2022/09/07 02:32:59;;;;;;;7.45;4.40;;;;;;;11.39;53.71;100769.77;1704764;84;21241;-76
2022/09/07 02:36:03;;;;;;;15.65;3.95;;;;;;;11.40;53.62;100768.73;1705195;84;21220;-76
2022/09/07 02:39:10;;;;;;;14.00;4.85;;;;;;;11.35;53.69;100762.06;1704705;84;21197;-76
2022/09/07 02:42:16;;;;;;;9.20;4.78;;;;;;;11.34;53.69;100763.06;1705183;84;21174;-76
2022/09/07 02:45:22;;;;;;;6.17;4.47;;;;;;;11.33;53.64;100759.47;1704020;84;21252;-76
2022/09/07 02:48:44;;;;;;;11.05;5.42;;;;;;;11.25;53.77;100758.11;1705129;84;21177;-75
2022/09/07 02:52:10;;;;;;;7.92;5.22;;;;;;;11.18;54.10;100761.17;1705079;84;21189;-76
2022/09/07 02:55:42;;;;;;;10.25;5.47;;;;;;;11.16;54.34;100761.87;1703877;84;21205;-77
2022/09/07 02:58:55;;;;;;;15.15;4.92;;;;;;;11.17;54.56;100760.84;1705152;84;21252;-76
2022/09/07 03:02:14;;;;;;;8.60;5.37;;;;;;;11.21;54.63;100755.37;1703854;84;21782;-76
2022/09/07 03:05:58;;;;;;;8.67;4.83;;;;;;;11.29;54.56;100760.83;1704346;84;21248;-77
2022/09/07 03:09:05;;;;;;;10.43;4.75;;;;;;;11.19;55.12;100771.09;1704100;84;21723;-76
2022/09/07 03:12:13;;;;;;;10.10;5.10;;;;;;;11.23;55.51;100765.11;1705373;84;21177;-77
2022/09/07 03:15:21;;;;;;;13.90;4.45;;;;;;;11.21;55.83;100769.06;1705226;84;21830;-77
2022/09/07 03:18:27;;;;;;;9.90;4.90;;;;;;;11.30;55.75;100769.93;1704363;84;21205;-77
2022/09/07 03:21:33;;;;;;;6.65;4.10;;;;;;;11.31;55.63;100775.74;1705305;84;21161;-77
2022/09/07 03:24:39;;;;;;;10.72;4.30;;;;;;;11.39;55.46;100775.23;1704674;84;21767;-77
2022/09/07 03:27:45;;;;;;;6.45;4.03;;;;;;;11.43;55.49;100779.36;1705223;84;21810;-77
2022/09/07 03:30:51;;;;;;;6.62;4.40;;;;;;;11.59;55.11;100785.86;1705209;84;21170;-76
2022/09/07 03:33:57;;;;;;;6.83;4.20;;;;;;;11.40;55.52;100789.27;1704844;84;21197;-76
2022/09/07 03:37:03;;;;;;;8.75;4.17;;;;;;;11.43;55.63;100787.58;1703908;84;21220;-76
2022/09/07 03:40:03;;;;;;;7.70;3.50;;;;;;;11.60;55.27;100795.78;1704171;84;21185;-76
2022/09/07 03:43:09;;;;;;;11.00;3.60;;;;;;;11.72;54.97;100791.68;1705135;84;21173;-76
2022/09/07 03:46:18;;;;;;;7.25;3.83;;;;;;;11.76;55.01;100799.39;1705197;84;21200;-75
2022/09/07 03:49:24;;;;;;;10.53;3.42;;;;;;;12.03;54.42;100800.05;1704599;84;21200;-75
2022/09/07 03:52:31;;;;;;;8.18;3.92;;;;;;;12.06;54.34;100807.09;1705143;84;21215;-75
2022/09/07 03:55:37;;;;;;;9.78;3.30;;;;;;;12.12;54.32;100807.76;1703897;84;21212;-82
2022/09/07 03:58:43;;;;;;;8.33;3.67;;;;;;;12.26;54.15;100806.52;1705288;84;21786;-82
2022/09/07 04:01:51;;;;;;;7.55;3.58;;;;;;;12.45;53.77;100812.12;1705413;84;21173;-82
2022/09/07 04:04:57;;;;;;;10.80;3.95;;;;;;;12.57;53.54;100811.77;1704031;84;21185;-82
2022/09/07 04:08:02;;;;;;;9.73;3.92;;;;;;;12.66;53.47;100812.07;1703993;84;21185;-81
2022/09/07 04:11:09;;;;;;;6.72;3.80;;;;;;;12.72;53.46;100811.35;1705516;84;21174;-82
2022/09/07 04:14:16;;;;;;;10.55;3.62;;;;;;;12.91;53.45;100810.06;1705413;84;21224;-82
2022/09/07 04:17:23;;;;;;;6.05;4.20;;;;;;;13.04;53.22;100816.69;1705473;84;21166;-82
2022/09/07 04:20:28;;;;;;;10.05;4.22;;;;;;;13.30;52.99;100811.40;1698435;84;21508;-82
2022/09/07 04:23:34;;;;;;;9.10;4.58;;;;;;;13.46;53.12;100814.05;1697590;84;21269;-82
2022/09/07 04:26:42;;;;;;;9.53;4.55;;;;;;;13.66;52.87;100808.05;1697687;84;21178;-83
2022/09/07 04:29:48;;;;;;;8.48;4.40;;;;;;;13.93;52.61;100813.50;1696918;84;21249;-82
2022/09/07 04:32:55;;;;;;;10.50;4.40;;;;;;;14.11;52.44;100810.37;1696405;84;21185;-82
2022/09/07 04:36:02;;;;;;;11.97;4.87;;;;;;;14.25;52.48;100814.52;1696386;84;21214;-82
2022/09/07 04:39:09;;;;;;;11.63;3.87;;;;;;;14.32;52.48;100815.49;1697362;84;23154;-82
2022/09/07 04:42:17;;;;;;;9.60;4.10;;;;;;;14.46;52.17;100820.67;1697575;84;21794;-82
2022/09/07 04:45:22;;;;;;;7.80;3.22;;;;;;;14.70;51.84;100815.95;1696436;84;21802;-82
2022/09/07 04:48:29;;;;;;;7.87;3.87;;;;;;;14.98;51.21;100816.11;1696225;84;21229;-83
2022/09/07 04:51:30;;;;;;;6.70;3.85;;;;;;;15.23;50.86;100817.47;1700232;84;21244;-83
2022/09/07 04:54:22;;;;;;;8.73;3.87;;;;;;;15.35;50.76;100819.20;1697473;84;21173;-83
2022/09/07 04:57:11;;;;;;;9.08;3.37;;;;;;;15.58;50.58;100822.63;1701161;84;21184;-83
2022/09/07 05:00:07;;;;;;;7.72;3.50;;;;;;;15.75;50.37;100818.25;1655623;86;21223;-83
2022/09/07 05:02:52;;;;;;;5.05;2.98;;;;;;;15.85;49.31;100825.66;1685220;84;21181;-83
2022/09/07 05:05:45;;;;;;;6.92;2.90;;;;;;;15.96;48.58;100825.14;1685293;84;21812;-83
2022/09/07 05:08:33;;;;;;;6.45;3.60;;;;;;;16.10;48.19;100831.62;1680033;84;21177;-83
2022/09/07 05:11:29;;;;;;;5.70;3.25;;;;;;;16.21;47.47;100835.20;1660849;85;21526;-82
2022/09/07 05:14:15;;;;;;;6.12;3.20;;;;;;;16.28;47.53;100829.75;1686480;84;21195;-82
2022/09/07 05:17:21;;;;;;;8.87;3.83;;;;;;;16.40;47.33;100831.41;1683219;84;21170;-82
2022/09/07 05:20:26;;;;;;;10.45;3.52;;;;;;;16.53;47.01;100838.41;1687960;84;21893;-82
2022/09/07 05:23:31;;;;;;;8.10;3.95;;;;;;;16.64;46.82;100829.55;1692371;84;21198;-83
2022/09/07 05:26:41;;;;;;;7.12;4.00;;;;;;;16.84;46.78;100824.16;1710237;82;21196;-77
2022/09/07 05:29:48;;;;;;;6.50;3.42;;;;;;;16.94;46.55;100824.66;1713039;82;21228;-84
2022/09/07 05:32:55;;;;;;;7.50;3.67;;;;;;;17.13;46.23;100829.94;1697805;83;21186;-83
2022/09/07 05:36:05;;;;;;;7.78;3.92;;;;;;;17.20;46.40;100828.04;1691744;83;21168;-83
2022/09/07 05:39:10;;;;;;;11.97;4.33;;;;;;;17.29;46.09;100830.09;1693716;83;21228;-83
2022/09/07 05:42:15;;;;;;;6.78;3.58;;;;;;;17.36;45.15;100830.45;1653518;85;21181;-83
2022/09/07 05:45:22;;;;;;;7.85;4.12;;;;;;;17.45;44.70;100831.62;1690514;84;21458;-83
2022/09/07 05:48:20;;;;;;;9.25;4.22;;;;;;;17.52;44.27;100827.82;1720939;82;21212;-82
2022/09/07 05:51:26;;;;;;;8.28;3.70;;;;;;;17.52;44.11;100829.73;1719727;82;21160;-83
2022/09/07 05:54:33;;;;;;;8.10;3.10;;;;;;;17.56;43.40;100829.64;1715938;82;21240;-82
2022/09/07 05:57:37;;;;;;;6.50;2.62;;;;;;;17.63;43.12;100834.11;1691310;83;21170;-82
2022/09/07 06:00:44;;;;;;;5.62;2.30;;;;;;;17.80;43.11;100829.61;1696241;83;21173;-82
2022/09/07 06:03:49;;;;;;;4.60;2.37;;;;;;;17.88;42.78;100835.79;1683975;83;21841;-82
2022/09/07 06:06:49;;;;;;;5.78;2.70;;;;;;;17.96;42.86;100832.48;1653550;85;21837;-82
2022/09/07 06:09:56;;;;;;;5.90;2.33;;;;;;;18.11;42.81;100831.23;1713402;82;21196;-83
2022/09/07 06:13:03;;;;;;;5.55;2.80;;;;;;;18.18;42.92;100838.67;1712915;82;21554;-82
2022/09/07 06:16:11;;;;;;;4.40;2.40;;;;;;;18.23;42.29;100839.72;1718824;81;21193;-83
2022/09/07 06:19:17;;;;;;;4.22;2.05;;;;;;;18.29;41.66;100847.70;1723512;82;21264;-83
2022/09/07 06:22:23;;;;;;;4.25;2.00;;;;;;;18.25;41.37;100851.42;1699077;82;21272;-83
2022/09/07 06:25:28;;;;;;;5.47;1.80;;;;;;;18.27;41.13;100850.70;1659639;85;21235;-83
2022/09/07 06:28:38;;;;;;;2.02;1.42;;;;;;;18.33;40.31;100851.22;1681580;83;21218;-81
2022/09/07 06:31:46;;;;;;;3.08;1.75;;;;;;;18.43;40.18;100849.93;1684959;84;21196;-81
2022/09/07 06:34:52;;;;;;;3.33;1.52;;;;;;;18.47;39.92;100846.52;1680902;83;21224;-81
2022/09/07 06:37:59;;;;;;;2.37;1.35;;;;;;;18.59;39.53;100849.50;1659842;85;21225;-81
2022/09/07 06:41:14;;;;;;;3.90;1.20;;;;;;;18.54;38.83;100853.45;1632779;86;21177;-82
2022/09/07 06:44:21;;;;;;;2.20;1.35;;;;;;;18.67;38.38;100850.63;1660475;85;21612;-81
2022/09/07 06:47:27;;;;;;;2.70;1.22;;;;;;;18.68;37.69;100858.41;1685125;83;21160;-83
2022/09/07 06:50:33;;;;;;;3.00;1.40;;;;;;;18.84;37.58;100858.84;1679928;83;21209;-82
2022/09/07 06:53:39;;;;;;;2.83;1.42;;;;;;;18.96;37.60;100870.63;1663358;85;21194;-82
2022/09/07 06:56:46;;;;;;;6.87;1.20;;;;;;;19.07;37.04;100866.66;1684290;83;21216;-83
2022/09/07 06:59:52;;;;;;;1.40;1.20;;;;;;;19.14;36.58;100870.23;1660209;84;21219;-76
2022/09/07 07:03:00;;;;;;;2.30;1.10;;;;;;;19.21;37.07;100876.32;1684239;83;21177;-77
2022/09/07 07:06:06;;;;;;;3.10;1.40;;;;;;;19.33;36.58;100880.94;1664216;84;21164;-77
2022/09/07 07:09:17;;;;;;;2.80;1.50;;;;;;;19.27;36.11;100876.82;1685235;83;21192;-83
2022/09/07 07:12:23;;;;;;;4.15;1.40;;;;;;;19.49;36.29;100878.75;1662202;85;21270;-82
2022/09/07 07:15:28;;;;;;;4.40;1.35;;;;;;;19.48;35.77;100882.58;1682513;83;21204;-82
2022/09/07 07:18:34;;;;;;;3.42;1.40;;;;;;;19.37;36.54;100879.97;1684689;83;21180;-81
2022/09/07 07:21:40;;;;;;;6.65;1.60;;;;;;;19.49;36.35;100878.22;1663855;85;21184;-82
2022/09/07 07:24:47;;;;;;;2.17;1.12;;;;;;;19.60;35.77;100885.02;1698874;83;21219;-78
2022/09/07 07:27:55;;;;;;;5.08;1.70;;;;;;;19.69;35.46;100889.77;1696589;83;21286;-82
2022/09/07 07:30:58;;;;;;;3.00;1.40;;;;;;;19.70;35.52;100880.37;1681486;83;21219;-77
2022/09/07 07:33:56;;;;;;;;;;;;;;;19.66;35.22;100879.41;1662852;86;21836;-76
2022/09/07 07:37:02;;;;;;;3.45;1.40;;;;;;;19.83;34.61;100880.29;1690896;84;20240;-77
2022/09/07 07:40:07;;;;;;;5.28;1.82;;;;;;;20.01;33.92;100891.48;1692596;83;21594;-76
2022/09/07 07:43:15;;;;;;;4.42;1.50;;;;;;;20.11;33.50;100884.05;1690544;83;22208;-76
2022/09/07 07:46:27;;;;;;;2.35;1.22;;;;;;;20.31;33.46;100881.10;1695226;83;21174;-83
2022/09/07 07:49:32;;;;;;;2.85;1.45;;;;;;;20.08;32.29;100881.16;1703576;83;21778;-77
2022/09/07 07:52:42;;;;;;;3.27;1.70;;;;;;;20.06;32.72;100878.31;1691435;83;21555;-76
2022/09/07 07:55:50;;;;;;;2.35;1.45;;;;;;;20.16;33.33;100864.78;1692096;83;21226;-77
2022/09/07 07:58:56;;;;;;;1.92;1.02;;;;;;;20.40;33.55;100868.63;1694288;83;21207;-77
2022/09/07 08:02:03;;;;;;;1.40;1.02;;;;;;;20.62;31.93;100868.56;1692710;83;21675;-82
2022/09/07 08:05:09;;;;;;;3.25;1.17;;;;;;;20.71;31.52;100869.66;1688184;83;21169;-77
2022/09/07 08:08:15;;;;;;;1.72;1.30;;;;;;;20.76;31.78;100861.48;1681149;83;21210;-76
2022/09/07 08:11:26;;;;;;;2.50;1.35;;;;;;;20.86;32.56;100864.58;1695944;84;21570;-77
2022/09/07 08:14:32;;;;;;;1.92;1.10;;;;;;;20.98;32.23;100859.08;1698785;83;21841;-77
2022/09/07 08:17:37;;;;;;;3.83;1.05;;;;;;;21.26;31.72;100857.98;1691147;83;21196;-77
2022/09/07 08:20:43;;;;;;;1.07;0.90;;;;;;;21.40;30.42;100855.91;1676789;83;21255;-77
2022/09/07 08:23:49;;;;;;;4.70;0.85;;;;;;;21.43;29.78;100856.30;1698473;83;21221;-77
2022/09/07 08:26:55;;;;;;;0.62;0.62;;;;;;;21.28;29.43;100857.23;1721188;81;21790;-82
2022/09/07 08:30:00;;;;;;;1.87;1.00;;;;;;;21.10;29.51;100854.45;1681017;83;21200;-77
2022/09/07 08:33:06;;;;;;;1.25;0.78;;;;;;;20.84;29.69;100854.20;1685806;84;21178;-83
2022/09/07 08:36:26;;;;;;;1.55;0.80;;;;;;;20.74;28.98;100851.12;1712802;82;21837;-81
2022/09/07 08:39:32;;;;;;;3.60;0.93;;;;;;;20.65;29.09;100845.88;1709351;82;21191;-82
2022/09/07 08:42:55;;;;;;;1.60;1.07;;;;;;;20.83;29.41;100838.07;1708406;82;21168;-81
2022/09/07 08:46:03;;;;;;;1.62;0.90;;;;;;;21.17;29.78;100839.39;1712469;82;21236;-81
2022/09/07 08:49:08;;;;;;;4.87;1.10;;;;;;;21.46;29.77;100829.95;1718242;82;21246;-82
2022/09/07 08:52:21;;;;;;;4.35;1.30;;;;;;;21.69;29.56;100833.37;1729995;82;21180;-82
2022/09/07 08:55:31;;;;;;;3.65;1.15;;;;;;;21.59;28.12;100836.69;1714579;81;21176;-82
2022/09/07 08:58:54;;;;;;;2.80;0.93;;;;;;;21.37;28.15;100832.75;1712667;82;22045;-82
2022/09/07 09:02:00;;;;;;;2.00;0.98;;;;;;;21.14;28.42;100829.27;1723092;81;21818;-77
2022/09/07 09:05:07;;;;;;;1.55;1.02;;;;;;;21.25;28.62;100829.02;1716179;81;21236;-78
2022/09/07 09:08:48;;;;;;;3.95;1.37;;;;;;;21.39;28.01;100816.66;1712163;82;21153;-76
2022/09/07 09:12:24;;;;;;;1.90;1.02;;;;;;;21.53;27.93;100818.70;1712936;83;21225;-77
2022/09/07 09:15:36;;;;;;;5.17;1.45;;;;;;;21.78;27.96;100820.78;1705333;81;21185;-77
2022/09/07 09:19:00;;;;;;;;;;;;;;;22.04;27.83;100804.74;1716043;81;21865;-77
2022/09/07 09:22:29;;;;;;;3.45;0.90;;;;;;;22.09;28.04;100809.05;1691695;84;20718;-76
2022/09/07 09:25:39;;;;;;;3.27;1.60;;;;;;;22.18;27.83;100802.91;1701776;82;21187;-75
2022/09/07 09:28:45;;;;;;;8.75;1.60;;;;;;;22.16;27.41;100799.53;1703960;83;21279;-75
2022/09/07 09:31:52;;;;;;;3.90;1.72;;;;;;;21.93;27.88;100803.64;1685391;83;21196;-76
2022/09/07 09:35:24;;;;;;;3.65;1.65;;;;;;;21.86;27.49;100800.11;1670509;85;21205;-76
2022/09/07 09:38:43;;;;;;;7.53;1.57;;;;;;;21.78;27.89;100800.44;1646292;86;21582;-76
2022/09/07 09:41:49;;;;;;;2.85;1.52;;;;;;;21.68;27.83;100787.95;1648957;86;21780;-75
2022/09/07 09:44:54;;;;;;;8.33;1.30;;;;;;;21.86;27.66;100775.89;1653674;86;21555;-75
2022/09/07 09:48:01;;;;;;;1.72;1.35;;;;;;;22.11;27.62;100785.97;1652886;86;22047;-76
2022/09/07 09:51:12;;;;;;;2.62;1.37;;;;;;;22.30;27.49;100779.77;1657901;86;21665;-82
2022/09/07 09:54:46;;;;;;;3.52;1.95;;;;;;;22.29;28.07;100785.04;1647932;85;22139;-77
2022/09/07 09:58:06;;;;;;;2.90;1.62;;;;;;;22.07;28.30;100777.27;1652946;86;21175;-77
2022/09/07 10:01:29;;;;;;;4.55;1.60;;;;;;;21.91;28.29;100772.39;1648529;86;21745;-83
2022/09/07 10:04:37;;;;;;;4.22;1.60;;;;;;;21.65;28.47;100777.31;1668977;84;21285;-83
2022/09/07 10:07:44;;;;;;;4.55;1.30;;;;;;;21.40;28.46;100778.00;1645615;86;21215;-83
2022/09/07 10:11:13;;;;;;;2.08;1.05;;;;;;;21.29;28.16;100772.67;1643791;86;21800;-83
2022/09/07 10:14:37;;;;;;;2.92;1.35;;;;;;;21.30;28.43;100774.91;1647878;85;21189;-83
2022/09/07 10:17:49;;;;;;;8.10;1.37;;;;;;;21.45;28.67;100767.00;1682655;84;21182;-82
2022/09/07 10:20:55;;;;;;;2.45;1.02;;;;;;;21.80;28.46;100766.27;1668118;84;21212;-83
2022/09/07 10:24:13;;;;;;;1.95;0.85;;;;;;;22.12;27.39;100768.22;1655210;85;21240;-83
2022/09/07 10:27:39;;;;;;;6.80;1.75;;;;;;;22.28;27.55;100762.45;1691604;83;21181;-82
2022/09/07 10:30:55;;;;;;;12.50;1.40;;;;;;;22.50;27.83;100764.93;1720034;82;21712;-83
2022/09/07 10:34:16;;;;;;;2.95;1.52;;;;;;;22.53;28.10;100768.61;1714688;82;21704;-77
2022/09/07 10:37:46;;;;;;;3.02;1.32;;;;;;;22.52;28.09;100766.07;1673624;83;21188;-77
2022/09/07 10:41:09;;;;;;;2.65;1.32;;;;;;;22.34;28.02;100764.27;1684822;83;21173;-77
2022/09/07 10:44:15;;;;;;;2.83;1.30;;;;;;;22.09;28.13;100759.75;1687176;84;21190;-77
2022/09/07 10:47:31;;;;;;;2.83;1.30;;;;;;;21.88;27.93;100760.36;1706801;81;21188;-77
2022/09/07 10:50:58;;;;;;;5.47;1.32;;;;;;;21.78;28.08;100768.42;1712459;81;21188;-77
2022/09/07 10:54:31;;;;;;;2.35;1.12;;;;;;;21.86;28.12;100762.52;1706152;82;21212;-77
2022/09/07 10:58:14;;;;;;;2.42;1.10;;;;;;;21.91;28.10;100757.07;1709321;83;21189;-79
2022/09/07 11:01:36;;;;;;;1.47;1.00;;;;;;;21.91;28.58;100755.13;1710273;82;21192;-84
2022/09/07 11:05:30;;;;;;;1.72;0.80;;;;;;;22.05;28.04;100755.75;1712647;81;21311;-77
2022/09/07 11:09:24;;;;;;;2.27;1.00;;;;;;;22.26;28.10;100745.99;1712102;83;21168;-78
2022/09/07 11:12:42;;;;;;;6.25;1.05;;;;;;;22.46;28.68;100742.81;1706120;82;21837;-78
2022/09/07 11:15:51;;;;;;;6.78;0.95;;;;;;;22.58;27.54;100740.84;1713020;82;21447;-77
2022/09/07 11:19:08;;;;;;;1.92;1.00;;;;;;;22.76;27.13;100734.81;1711884;83;21255;-78
2022/09/07 11:22:26;;;;;;;0.95;0.78;;;;;;;22.84;27.65;100731.09;1665040;85;21440;-76
2022/09/07 11:25:47;;;;;;;1.55;1.00;;;;;;;22.99;27.61;100737.56;1649299;85;21213;-76
2022/09/07 11:29:08;;;;;;;2.72;1.15;;;;;;;23.02;26.66;100737.08;1675062;84;21216;-76
2022/09/07 11:32:19;;;;;;;5.97;1.30;;;;;;;22.94;27.15;100736.91;1690566;83;21846;-76
2022/09/07 11:35:58;;;;;;;5.65;1.15;;;;;;;22.88;27.17;100730.91;1679210;84;21896;-77
2022/09/07 11:39:14;;;;;;;7.33;1.57;;;;;;;22.78;27.54;100728.45;1683472;83;21271;-76
2022/09/07 11:42:39;;;;;;;3.87;1.15;;;;;;;22.71;26.67;100722.45;1678656;83;21165;-76
2022/09/07 11:46:03;;;;;;;3.00;1.20;;;;;;;22.55;26.66;100727.41;1655531;85;21487;-77
2022/09/07 11:49:10;;;;;;;4.10;1.20;;;;;;;22.25;27.02;100719.20;1645024;85;21286;-76
2022/09/07 11:52:46;;;;;;;2.12;1.20;;;;;;;22.22;27.54;100726.67;1677949;83;21189;-77
2022/09/07 11:55:54;;;;;;;2.58;1.00;;;;;;;22.23;27.00;100713.58;1675674;83;21230;-77
2022/09/07 11:59:28;;;;;;;3.12;1.10;;;;;;;21.97;27.76;100714.33;1679894;83;21252;-76
2022/09/07 12:03:00;;;;;;;1.77;1.10;;;;;;;22.08;27.43;100713.49;1689351;84;21232;-76
2022/09/07 12:06:43;;;;;;;5.33;1.15;;;;;;;22.04;27.25;100720.64;1722430;82;21240;-76
2022/09/07 12:10:18;;;;;;;2.67;1.30;;;;;;;21.99;27.29;100716.34;1702873;81;22046;-76
2022/09/07 12:13:41;;;;;;;1.30;1.00;;;;;;;22.00;27.21;100717.19;1680458;84;21244;-77
2022/09/07 12:17:33;;;;;;;4.65;1.10;;;;;;;22.02;26.93;100716.38;1681342;85;21212;-76
2022/09/07 12:20:53;;;;;;;5.40;1.30;;;;;;;22.00;27.28;100706.89;1684350;83;21212;-77
2022/09/07 12:23:59;;;;;;;6.70;1.37;;;;;;;21.91;27.75;100705.55;1711824;82;22133;-76
2022/09/07 12:27:06;;;;;;;1.40;0.90;;;;;;;21.86;27.83;100712.39;1712584;83;21181;-76
2022/09/07 12:30:22;;;;;;;4.47;1.00;;;;;;;22.04;27.38;100705.31;1684020;84;21260;-77
2022/09/07 12:33:31;;;;;;;2.45;1.20;;;;;;;22.28;27.03;100702.55;1682597;83;21188;-82
2022/09/07 12:36:41;;;;;;;3.30;0.90;;;;;;;22.41;27.13;100696.17;1710401;82;21703;-84
2022/09/07 12:39:46;;;;;;;1.43;1.20;;;;;;;22.48;26.83;100691.84;1716175;83;21208;-84
2022/09/07 12:42:51;;;;;;;3.80;1.10;;;;;;;22.52;27.10;100690.81;1714675;83;22264;-76
2022/09/07 12:46:00;;;;;;;4.50;1.40;;;;;;;22.60;27.17;100689.05;1713929;82;21184;-77
2022/09/07 12:49:24;;;;;;;1.60;1.00;;;;;;;22.60;27.03;100687.09;1724191;82;21219;-76
2022/09/07 12:52:39;;;;;;;3.72;1.37;;;;;;;22.66;27.25;100684.70;1687565;82;21184;-76
2022/09/07 12:56:18;;;;;;;3.10;1.40;;;;;;;22.78;26.94;100683.84;1717311;81;21220;-77
2022/09/07 12:59:53;;;;;;;1.92;1.05;;;;;;;22.77;26.86;100695.52;1711773;83;21249;-77
2022/09/07 13:03:15;;;;;;;1.45;0.82;;;;;;;22.59;26.66;100674.26;1713672;83;21252;-76
2022/09/07 13:06:38;;;;;;;2.90;1.15;;;;;;;22.52;26.45;100681.90;1713762;83;21189;-76
2022/09/07 13:10:02;;;;;;;3.27;1.17;;;;;;;22.26;26.46;100679.67;1686584;83;21476;-77
2022/09/07 13:13:28;;;;;;;5.53;1.42;;;;;;;22.30;26.63;100677.55;1682413;85;21786;-76
2022/09/07 13:16:39;;;;;;;2.02;1.22;;;;;;;22.24;26.90;100677.11;1682682;85;21789;-76
2022/09/07 13:20:03;;;;;;;5.40;1.20;;;;;;;22.12;27.21;100678.53;1665751;86;21211;-76
2022/09/07 13:23:27;;;;;;;1.98;1.27;;;;;;;22.16;26.83;100670.50;1666175;84;21573;-76
2022/09/07 13:27:01;;;;;;;4.83;1.10;;;;;;;22.26;27.01;100669.92;1666054;86;21255;-77
2022/09/07 13:30:44;;;;;;;1.10;0.82;;;;;;;22.07;26.84;100676.98;1666263;85;21219;-76
2022/09/07 13:34:05;;;;;;;3.05;1.20;;;;;;;21.93;27.04;100665.80;1863018;76;27905;-82
2022/09/07 13:37:22;;;;;;;3.60;1.12;;;;;;;21.91;27.44;100667.95;1749591;82;21796;-81
2022/09/07 13:40:31;;;;;;;8.83;1.40;;;;;;;21.89;27.42;100664.58;1780363;80;21121;-81
2022/09/07 13:43:37;;;;;;;;;;;;;;;21.82;27.06;100666.08;1750593;82;21224;-81
2022/09/07 13:47:21;;;;;;;3.65;1.00;;;;;;;21.83;27.11;100665.53;1748872;82;20220;-81
2022/09/07 13:50:48;;;;;;;3.60;0.98;;;;;;;21.82;27.54;100670.25;1753655;81;21295;-81
2022/09/07 13:54:13;;;;;;;8.75;1.10;;;;;;;21.94;27.16;100668.88;1745661;81;21235;-81
2022/09/07 13:57:25;;;;;;;1.40;0.90;;;;;;;21.65;27.41;100659.01;1763678;81;21806;-81
2022/09/07 14:00:31;;;;;;;2.87;1.05;;;;;;;21.77;27.39;100663.72;1761411;81;21164;-82
2022/09/07 14:03:41;;;;;;;8.70;1.12;;;;;;;21.73;27.08;100656.39;1761517;81;21283;-81
2022/09/07 14:06:47;;;;;;;1.45;0.95;;;;;;;21.75;27.11;100661.73;1763305;81;21157;-81
2022/09/07 14:09:53;;;;;;;4.50;0.80;;;;;;;21.78;27.55;100660.69;1748493;81;21815;-81
2022/09/07 14:13:14;;;;;;;2.83;0.90;;;;;;;21.76;27.19;100658.70;1745459;82;21882;-82
2022/09/07 14:16:20;;;;;;;6.67;0.90;;;;;;;21.83;26.67;100658.05;1746360;82;21173;-82
2022/09/07 14:19:33;;;;;;;4.70;1.02;;;;;;;21.83;26.68;100657.17;1723946;82;21232;-82
2022/09/07 14:22:40;;;;;;;1.92;0.90;;;;;;;21.75;27.34;100656.17;1735660;82;21153;-81
2022/09/07 14:25:47;;;;;;;8.18;1.12;;;;;;;21.66;27.34;100653.73;1763689;81;21783;-81
2022/09/07 14:28:52;;;;;;;1.42;0.88;;;;;;;21.64;27.58;100652.27;1761807;81;21783;-81
2022/09/07 14:31:59;;;;;;;4.55;0.90;;;;;;;21.68;27.60;100657.11;1759174;80;21275;-81
2022/09/07 14:35:15;;;;;;;5.03;1.10;;;;;;;21.49;27.35;100652.74;1736443;80;21251;-79
2022/09/07 14:38:27;;;;;;;3.08;1.10;;;;;;;21.48;27.14;100662.73;1741627;81;21188;-82
2022/09/07 14:41:37;;;;;;;2.15;0.95;;;;;;;21.46;27.22;100660.75;1762920;81;21117;-83
2022/09/07 14:44:46;;;;;;;2.58;0.90;;;;;;;21.33;26.99;100654.84;1761403;81;21183;-82
2022/09/07 14:47:53;;;;;;;2.40;1.02;;;;;;;21.27;26.94;100658.56;1763014;81;21275;-82
2022/09/07 14:50:58;;;;;;;1.35;0.80;;;;;;;21.23;26.95;100655.94;1762700;81;21239;-81
2022/09/07 14:54:09;;;;;;;2.27;1.05;;;;;;;21.03;27.55;100657.62;1738051;81;21281;-81